Terminal Aerodrome Forecast
Issued by NWS

Home | Current Version | Previous Version | Text Only | Print | Product List | Glossary Off
Versions: 1 2 3 4 5 6 7 8 9 10 11 12 13 14 15 16

657
FTUS43 KPAH 242326
TAFCGI
TAF
KCGI 242326Z 2500/2524 25007KT P6SM -RA SCT060 BKN120
      TEMPO 2500/2501 6SM -SHRA BR BKN060
     FM250200 17005KT P6SM FEW050 BKN250
     FM251500 19010G18KT P6SM SCT040 BKN250=

USA.gov is the U.S. government's official web portal to all federal, state and local government web resources and services.